createdAt,value
2018-09-15T00:00:17.221Z,2.00
2018-09-15T00:02:50.875Z,1.70
2018-09-15T00:05:24.261Z,1.73
2018-09-15T00:07:57.663Z,1.70
2018-09-15T00:10:31.007Z,1.97
2018-09-15T00:13:09.911Z,1.53
2018-09-15T00:15:42.409Z,1.93
2018-09-15T00:18:20.990Z,2.30
2018-09-15T00:20:54.207Z,1.77
2018-09-15T00:23:26.721Z,1.77
2018-09-15T00:25:59.119Z,1.90
2018-09-15T00:28:31.576Z,2.40
2018-09-15T00:31:04.007Z,2.13
2018-09-15T00:33:36.436Z,1.60
2018-09-15T00:36:09.683Z,1.70
2018-09-15T00:38:42.081Z,1.57
2018-09-15T00:41:14.480Z,1.50
2018-09-15T00:43:46.869Z,1.77
2018-09-15T00:46:19.326Z,1.60
2018-09-15T00:48:51.797Z,1.70
2018-09-15T00:51:24.266Z,1.73
2018-09-15T00:53:56.709Z,1.83
2018-09-15T00:56:35.342Z,1.73
2018-09-15T00:59:07.869Z,1.90
2018-09-15T01:01:41.203Z,2.03
2018-09-15T01:04:19.834Z,1.70
2018-09-15T01:06:52.466Z,2.23
2018-09-15T01:09:24.850Z,1.80
2018-09-15T01:11:57.299Z,1.93
2018-09-15T01:14:29.777Z,1.80
2018-09-15T01:17:02.096Z,2.17
2018-09-15T01:19:40.720Z,2.13
2018-09-15T01:22:13.150Z,1.90
2018-09-15T01:24:45.777Z,1.97
2018-09-15T01:27:18.218Z,2.97
2018-09-15T01:29:50.719Z,2.07
2018-09-15T01:32:25.788Z,2.10
2018-09-15T01:34:58.167Z,2.00
2018-09-15T01:37:30.621Z,2.00
2018-09-15T01:40:03.081Z,1.83
2018-09-15T01:42:35.441Z,1.93
2018-09-15T01:45:07.970Z,1.87
2018-09-15T01:47:40.373Z,2.10
2018-09-15T01:50:12.709Z,2.03
2018-09-15T01:52:45.141Z,1.90
2018-09-15T01:55:17.532Z,1.97
2018-09-15T01:57:50.711Z,2.23
2018-09-15T02:00:23.112Z,2.20
2018-09-15T02:02:55.502Z,2.10
2018-09-15T02:05:27.968Z,1.97
2018-09-15T02:08:06.659Z,1.90
2018-09-15T02:10:39.018Z,2.00
2018-09-15T02:13:18.491Z,2.50
2018-09-15T02:15:50.952Z,1.87
2018-09-15T02:18:25.320Z,2.53
2018-09-15T02:20:57.744Z,1.87
2018-09-15T02:23:30.160Z,2.50
2018-09-15T02:26:02.551Z,2.30
2018-09-15T02:28:35.041Z,2.70
2018-09-15T02:31:07.514Z,2.07
2018-09-15T02:33:40.013Z,3.93
2018-09-15T02:36:12.523Z,2.70
2018-09-15T02:38:45.244Z,3.03
2018-09-15T02:41:17.685Z,2.67
2018-09-15T02:43:50.156Z,2.53
2018-09-15T02:46:28.750Z,3.40
2018-09-15T02:49:01.336Z,2.70
2018-09-15T02:51:33.848Z,3.10
2018-09-15T02:54:12.575Z,2.57
2018-09-15T02:56:45.039Z,2.43
2018-09-15T02:59:17.512Z,2.90
2018-09-15T03:01:49.986Z,2.90
2018-09-15T03:04:22.621Z,2.80
2018-09-15T03:06:55.441Z,2.97
2018-09-15T03:09:27.884Z,2.93
2018-09-15T03:12:00.193Z,2.83
2018-09-15T03:14:32.539Z,3.27
2018-09-15T03:17:05.073Z,3.23
2018-09-15T03:19:37.460Z,3.70
2018-09-15T03:22:10.882Z,3.80
2018-09-15T03:24:43.269Z,3.33
2018-09-15T03:27:15.812Z,3.63
2018-09-15T03:29:54.444Z,3.60
2018-09-15T03:32:27.061Z,3.30
2018-09-15T03:34:59.422Z,2.93
2018-09-15T03:37:32.692Z,3.40
2018-09-15T03:40:05.347Z,4.13
2018-09-15T03:42:37.701Z,4.20
2018-09-15T03:45:16.315Z,4.07
2018-09-15T03:47:54.919Z,3.70
2018-09-15T03:50:29.305Z,4.77
2018-09-15T03:53:01.676Z,4.13
2018-09-15T03:55:34.106Z,4.70
2018-09-15T03:58:06.531Z,3.80
2018-09-15T04:03:18.084Z,3.70
2018-09-15T04:05:50.438Z,4.00
2018-09-15T04:08:22.871Z,3.70
2018-09-15T04:11:01.547Z,4.07
2018-09-15T04:13:33.979Z,3.53
2018-09-15T04:16:06.418Z,4.03
2018-09-15T04:18:38.781Z,3.60
2018-09-15T04:21:12.000Z,3.60
2018-09-15T04:23:44.468Z,3.93
2018-09-15T04:26:16.820Z,3.90
2018-09-15T04:28:49.239Z,4.03
2018-09-15T04:31:21.703Z,4.33
2018-09-15T04:33:54.185Z,4.17
2018-09-15T04:36:26.742Z,4.23
2018-09-15T04:39:00.055Z,4.10
2018-09-15T04:41:32.624Z,4.20
2018-09-15T04:44:06.063Z,4.07
2018-09-15T04:46:38.496Z,4.63
2018-09-15T04:49:11.038Z,4.63
2018-09-15T04:51:50.409Z,5.90
2018-09-15T04:54:22.876Z,4.97
2018-09-15T04:56:55.252Z,4.77
2018-09-15T04:59:27.708Z,4.70
2018-09-15T05:02:00.199Z,4.60
2018-09-15T05:04:33.677Z,4.83
2018-09-15T05:07:12.319Z,5.10
2018-09-15T05:09:44.740Z,5.20
2018-09-15T05:15:12.022Z,5.53
2018-09-15T05:17:44.576Z,6.10
2018-09-15T05:20:17.043Z,5.73
2018-09-15T05:22:49.554Z,6.23
2018-09-15T05:25:21.960Z,5.70
2018-09-15T05:27:54.613Z,6.40
2018-09-15T05:30:27.079Z,6.13
2018-09-15T05:33:05.767Z,6.10
2018-09-15T05:35:38.237Z,5.97
2018-09-15T05:38:10.690Z,5.73
2018-09-15T05:40:43.054Z,7.03
2018-09-15T05:43:15.483Z,6.50
2018-09-15T05:45:48.728Z,6.73
2018-09-15T05:48:21.863Z,6.53
2018-09-15T05:50:54.412Z,7.40
2018-09-15T05:53:26.864Z,7.17
2018-09-15T05:55:59.454Z,7.37
2018-09-15T05:58:31.819Z,6.83
2018-09-15T06:01:10.570Z,6.97
2018-09-15T06:03:43.291Z,7.00
2018-09-15T06:06:16.579Z,7.53
2018-09-15T06:08:48.997Z,7.53
2018-09-15T06:11:27.658Z,7.43
2018-09-15T06:14:00.065Z,7.77
2018-09-15T06:16:33.622Z,8.17
2018-09-15T06:19:12.425Z,8.03
2018-09-15T06:21:45.015Z,7.80
2018-09-15T06:24:17.416Z,8.57
2018-09-15T06:26:50.187Z,7.60
2018-09-15T06:29:22.739Z,8.20
2018-09-15T06:31:55.280Z,8.03
2018-09-15T06:34:33.956Z,8.13
2018-09-15T06:37:12.507Z,8.23
2018-09-15T06:39:45.035Z,7.27
2018-09-15T06:42:17.456Z,8.10
2018-09-15T06:44:49.915Z,8.45
2018-09-15T06:47:22.351Z,7.70
2018-09-15T06:49:54.848Z,8.10
2018-09-15T06:52:27.301Z,8.10
2018-09-15T06:54:59.933Z,7.60
2018-09-15T06:57:38.546Z,7.80
2018-09-15T07:00:10.971Z,8.10
2018-09-15T07:02:43.398Z,8.17
2018-09-15T07:05:22.251Z,7.05
2018-09-15T07:07:55.347Z,7.83
2018-09-15T07:10:27.919Z,7.92
2018-09-15T07:13:01.400Z,7.97
2018-09-15T07:15:33.833Z,7.22
2018-09-15T07:18:12.401Z,8.15
2018-09-15T07:20:45.234Z,7.35
2018-09-15T07:23:17.851Z,7.47
2018-09-15T07:25:57.510Z,7.90
2018-09-15T07:28:36.194Z,8.03
2018-09-15T07:31:14.815Z,7.60
2018-09-15T07:34:18.375Z,8.25
2018-09-15T07:36:50.792Z,8.05
2018-09-15T07:39:23.395Z,8.30
2018-09-15T07:41:55.793Z,7.95
2018-09-15T07:44:34.615Z,7.50
2018-09-15T07:47:07.279Z,8.13
2018-09-15T07:49:46.055Z,7.55
2018-09-15T07:52:24.695Z,7.17
2018-09-15T07:54:57.709Z,7.25
2018-09-15T07:57:31.088Z,8.53
2018-09-15T08:00:09.986Z,7.62
2018-09-15T08:02:48.723Z,7.03
2018-09-15T08:05:21.248Z,8.73
2018-09-15T08:07:53.703Z,8.43
2018-09-15T08:10:26.167Z,8.50
2018-09-15T08:13:04.646Z,8.05
2018-09-15T08:15:37.955Z,8.28
2018-09-15T08:18:10.440Z,7.70
2018-09-15T08:20:43.011Z,8.10
2018-09-15T08:23:21.581Z,8.03
2018-09-15T08:25:54.369Z,8.08
2018-09-15T08:28:27.078Z,8.10
2018-09-15T08:30:59.690Z,7.47
2018-09-15T08:33:32.530Z,7.50
2018-09-15T08:36:11.976Z,8.35
2018-09-15T08:38:44.528Z,9.15
2018-09-15T08:41:17.034Z,8.90
2018-09-15T08:43:49.616Z,8.28
2018-09-15T08:46:22.077Z,8.25
2018-09-15T08:48:54.569Z,8.63
2018-09-15T08:51:33.257Z,10.53
2018-09-15T08:54:05.840Z,8.43
2018-09-15T08:56:44.871Z,7.45
2018-09-15T08:59:23.980Z,7.95
2018-09-15T09:02:02.610Z,7.92
2018-09-15T09:04:42.388Z,7.95
2018-09-15T09:07:15.767Z,6.67
2018-09-15T09:09:48.149Z,6.95
2018-09-15T09:12:20.570Z,7.25
2018-09-15T09:15:00.084Z,7.67
2018-09-15T09:17:32.465Z,6.67
2018-09-15T09:20:05.042Z,6.30
2018-09-15T09:22:37.507Z,7.20
2018-09-15T09:25:09.833Z,7.05
2018-09-15T09:27:42.266Z,6.50
2018-09-15T09:30:14.738Z,6.90
2018-09-15T09:32:47.261Z,6.70
2018-09-15T09:35:19.792Z,7.37
2018-09-15T09:37:54.194Z,6.78
2018-09-15T09:40:26.626Z,7.10
2018-09-15T09:42:59.979Z,7.62
2018-09-15T09:45:38.691Z,6.42
2018-09-15T09:48:11.300Z,6.42
2018-09-15T09:50:43.703Z,6.58
2018-09-15T09:53:16.819Z,7.15
2018-09-15T09:55:49.244Z,7.60
2018-09-15T09:58:29.101Z,8.58
2018-09-15T10:01:08.409Z,7.03
2018-09-15T10:03:48.275Z,8.63
2018-09-15T10:06:28.222Z,7.35
2018-09-15T10:09:01.912Z,6.55
2018-09-15T10:11:35.610Z,7.42
2018-09-15T10:14:15.688Z,4.92
2018-09-15T10:16:55.546Z,4.60
2018-09-15T10:19:29.015Z,5.03
2018-09-15T10:22:09.106Z,7.12
2018-09-15T10:24:43.084Z,11.68
2018-09-15T10:27:16.593Z,6.33
2018-09-15T10:29:50.238Z,3.35
2018-09-15T10:33:27.322Z,3.17
2018-09-15T10:36:00.782Z,3.02
2018-09-15T10:38:34.526Z,5.67
2018-09-15T10:41:08.023Z,4.10
2018-09-15T10:43:41.558Z,3.47
2018-09-15T10:46:15.050Z,3.08
2018-09-15T10:48:55.026Z,2.72
2018-09-15T10:51:35.053Z,3.37
2018-09-15T10:54:08.516Z,2.42
2018-09-15T10:56:42.219Z,2.75
2018-09-15T10:59:15.953Z,2.70
2018-09-15T11:01:56.450Z,4.05
2018-09-15T11:04:30.301Z,2.50
2018-09-15T11:07:04.190Z,2.37
2018-09-15T11:09:39.151Z,2.00
2018-09-15T11:12:12.860Z,2.83
2018-09-15T11:14:53.171Z,2.42
2018-09-15T11:17:40.071Z,2.50
2018-09-15T11:20:14.026Z,2.17
2018-09-15T11:22:47.934Z,3.95
2018-09-15T11:25:21.357Z,2.08
2018-09-15T11:27:54.916Z,2.60
2018-09-15T11:30:29.299Z,1.90
2018-09-15T11:33:03.001Z,2.15
2018-09-15T11:35:37.768Z,1.75
2018-09-15T11:38:11.155Z,1.90
2018-09-15T11:40:51.123Z,1.85
2018-09-15T11:43:24.794Z,2.10
2018-09-15T11:45:58.487Z,2.22
2018-09-15T11:48:32.119Z,2.58
2018-09-15T11:51:05.748Z,2.00
2018-09-15T11:53:39.401Z,2.00
2018-09-15T11:56:12.936Z,2.08
2018-09-15T11:58:52.934Z,1.80
2018-09-15T12:01:31.796Z,2.42
2018-09-15T12:04:06.412Z,1.75
2018-09-15T12:06:39.852Z,1.72
2018-09-15T12:09:13.549Z,1.75
2018-09-15T12:11:47.280Z,2.10
2018-09-15T12:14:21.786Z,1.67
2018-09-15T12:16:55.343Z,1.75
2018-09-15T12:19:35.277Z,1.92
2018-09-15T12:22:08.926Z,1.87
2018-09-15T12:24:42.903Z,1.67
2018-09-15T12:27:16.526Z,1.90
2018-09-15T12:29:51.320Z,1.87
2018-09-15T12:32:25.047Z,1.95
2018-09-15T12:34:58.532Z,2.15
2018-09-15T12:37:32.089Z,1.75
2018-09-15T12:40:05.776Z,1.90
2018-09-15T12:42:40.228Z,1.50
2018-09-15T12:45:14.026Z,1.80
2018-09-15T12:47:47.546Z,1.85
2018-09-15T12:50:21.984Z,1.20
2018-09-15T12:52:55.630Z,1.40
2018-09-15T12:55:29.180Z,1.67
2018-09-15T12:58:02.763Z,1.77
2018-09-15T13:00:36.175Z,1.72
2018-09-15T13:03:09.867Z,1.70
2018-09-15T13:05:43.406Z,1.30
2018-09-15T13:08:16.946Z,1.62
2018-09-15T13:10:50.558Z,1.47
2018-09-15T13:13:30.376Z,1.80
2018-09-15T13:16:05.072Z,1.15
2018-09-15T13:18:40.608Z,1.15
2018-09-15T13:21:21.162Z,1.60
2018-09-15T13:23:55.618Z,1.60
2018-09-15T13:26:29.196Z,1.27
2018-09-15T13:29:09.147Z,1.55
2018-09-15T13:31:42.651Z,1.80
2018-09-15T13:34:16.192Z,1.17
2018-09-15T13:36:56.154Z,1.60
2018-09-15T13:39:29.659Z,1.57
2018-09-15T13:42:03.231Z,1.70
2018-09-15T13:44:36.907Z,1.85
2018-09-15T13:47:10.506Z,1.40
2018-09-15T13:49:44.042Z,1.50
2018-09-15T13:52:17.612Z,1.50
2018-09-15T13:54:51.156Z,1.52
2018-09-15T13:57:31.199Z,1.42
2018-09-15T14:00:04.969Z,1.60
2018-09-15T14:02:41.462Z,1.32
2018-09-15T14:05:21.530Z,2.08
2018-09-15T14:07:54.945Z,1.52
2018-09-15T14:10:29.459Z,1.60
2018-09-15T14:13:09.453Z,1.70
2018-09-15T14:15:42.994Z,1.22
2018-09-15T14:18:22.844Z,1.70
2018-09-15T14:21:02.796Z,1.60
2018-09-15T14:23:36.448Z,1.22
2018-09-15T14:26:10.110Z,1.92
2018-09-15T14:28:50.418Z,1.40
2018-09-15T14:31:30.731Z,1.72
2018-09-15T14:34:10.735Z,1.35
2018-09-15T14:36:50.766Z,1.90
2018-09-15T14:39:24.400Z,1.50
2018-09-15T14:42:04.370Z,1.60
2018-09-15T14:44:37.946Z,1.90
2018-09-15T14:47:11.454Z,1.72
2018-09-15T14:49:45.140Z,1.62
2018-09-15T14:52:24.955Z,1.40
2018-09-15T14:55:05.324Z,1.80
2018-09-15T14:57:45.311Z,1.82
2018-09-15T15:00:25.292Z,1.80
2018-09-15T15:03:01.270Z,1.52
2018-09-15T15:05:41.131Z,1.77
2018-09-15T15:08:14.716Z,1.80
2018-09-15T15:10:49.687Z,1.40
2018-09-15T15:13:23.667Z,1.65
2018-09-15T15:15:57.303Z,1.72
2018-09-15T15:18:31.012Z,1.55
2018-09-15T15:21:04.888Z,1.57
2018-09-15T15:23:44.749Z,1.67
2018-09-15T15:26:18.280Z,1.80
2018-09-15T15:28:51.931Z,1.87
2018-09-15T15:31:25.509Z,1.60
2018-09-15T15:34:05.548Z,1.35
2018-09-15T15:36:46.306Z,1.20
2018-09-15T15:39:26.323Z,1.10
2018-09-15T15:42:06.242Z,1.87
2018-09-15T15:44:46.274Z,1.55
2018-09-15T15:47:20.883Z,1.67
2018-09-15T15:50:00.772Z,1.40
2018-09-15T15:52:40.642Z,1.50
2018-09-15T15:55:15.090Z,1.30
2018-09-15T15:57:48.686Z,1.57
2018-09-15T16:00:28.706Z,1.40
2018-09-15T16:03:02.239Z,1.20
2018-09-15T16:05:35.883Z,1.50
2018-09-15T16:08:09.486Z,1.05
2018-09-15T16:10:43.120Z,1.05
2018-09-15T16:13:23.080Z,1.67
2018-09-15T16:15:57.106Z,1.50
2018-09-15T16:18:30.626Z,1.85
2018-09-15T16:21:04.177Z,2.40
2018-09-15T16:23:37.563Z,2.42
2018-09-15T16:26:11.125Z,2.35
2018-09-15T16:28:44.558Z,2.77
2018-09-15T16:31:18.472Z,1.57
2018-09-15T16:33:58.468Z,1.82
2018-09-15T16:36:38.436Z,1.52
2018-09-15T16:39:12.472Z,1.60
2018-09-15T16:41:45.964Z,1.90
2018-09-15T16:44:19.380Z,2.22
2018-09-15T16:46:59.371Z,2.65
2018-09-15T16:49:39.240Z,1.62
2018-09-15T16:52:12.855Z,1.50
2018-09-15T16:54:47.384Z,1.42
2018-09-15T16:57:27.435Z,1.62
2018-09-15T17:00:07.458Z,1.82
2018-09-15T17:02:42.246Z,1.75
2018-09-15T17:05:15.858Z,1.22
2018-09-15T17:07:55.837Z,1.37
2018-09-15T17:10:29.702Z,1.60
2018-09-15T17:13:09.648Z,1.85
2018-09-15T17:15:49.536Z,1.65
2018-09-15T17:18:29.457Z,2.22
2018-09-15T17:21:09.434Z,3.33
2018-09-15T17:23:49.248Z,2.45
2018-09-15T17:26:22.771Z,2.00
2018-09-15T17:28:56.233Z,2.20
2018-09-15T17:31:29.687Z,1.40
2018-09-15T17:34:04.211Z,2.00
2018-09-15T17:36:44.272Z,1.70
2018-09-15T17:39:24.184Z,1.75
2018-09-15T17:41:57.910Z,1.42
2018-09-15T17:44:32.548Z,1.87
2018-09-15T17:47:06.331Z,1.90
2018-09-15T17:49:46.238Z,1.90
2018-09-15T17:52:26.190Z,1.62
2018-09-15T17:54:59.644Z,1.30
2018-09-15T17:57:33.227Z,1.40
2018-09-15T18:00:13.039Z,1.72
2018-09-15T18:05:28.072Z,1.80
2018-09-15T18:08:01.501Z,1.85
2018-09-15T18:10:35.229Z,1.47
2018-09-15T18:13:08.851Z,1.62
2018-09-15T18:15:47.473Z,1.60
2018-09-15T18:18:20.998Z,1.40
2018-09-15T18:20:54.397Z,1.70
2018-09-15T18:23:27.865Z,1.70
2018-09-15T18:26:01.342Z,1.87
2018-09-15T18:28:41.290Z,1.50
2018-09-15T18:31:21.123Z,1.82
2018-09-15T18:33:54.577Z,2.15
2018-09-15T18:36:28.215Z,1.72
2018-09-15T18:39:04.001Z,1.60
2018-09-15T18:41:37.760Z,2.10
2018-09-15T18:44:11.391Z,2.52
2018-09-15T18:46:51.358Z,2.20
2018-09-15T18:49:24.753Z,1.92
2018-09-15T18:51:58.312Z,2.20
2018-09-15T18:54:31.711Z,2.10
2018-09-15T18:57:11.576Z,1.87
2018-09-15T18:59:45.070Z,2.50
2018-09-15T19:02:18.745Z,3.65
2018-09-15T19:04:54.509Z,3.58
2018-09-15T19:07:28.130Z,3.20
2018-09-15T19:10:01.660Z,4.13
2018-09-15T19:12:36.152Z,3.75
2018-09-15T19:15:09.888Z,3.15
2018-09-15T19:17:49.615Z,3.33
2018-09-15T19:20:23.032Z,3.15
2018-09-15T19:23:02.955Z,3.13
2018-09-15T19:25:42.887Z,3.05
2018-09-15T19:28:22.884Z,3.33
2018-09-15T19:31:02.780Z,3.20
2018-09-15T19:33:42.659Z,3.90
2018-09-15T19:36:16.339Z,3.30
2018-09-15T19:38:49.950Z,3.23
2018-09-15T19:41:30.014Z,3.62
2018-09-15T19:44:03.527Z,3.93
2018-09-15T19:46:37.853Z,4.50
2018-09-15T19:49:12.338Z,3.70
2018-09-15T19:51:52.412Z,4.60
2018-09-15T19:54:25.868Z,4.20
2018-09-15T19:56:59.660Z,4.70
2018-09-15T19:59:33.310Z,5.60
2018-09-15T20:02:06.912Z,5.20
2018-09-15T20:04:40.403Z,5.00
2018-09-15T20:07:13.941Z,5.10
2018-09-15T20:09:47.635Z,5.27
2018-09-15T20:18:15.909Z,4.67
2018-09-15T20:20:54.813Z,4.27
2018-09-15T20:23:34.601Z,4.30
2018-09-15T20:26:12.359Z,4.13
2018-09-15T20:28:45.910Z,4.37
2018-09-15T20:31:25.744Z,4.40
2018-09-15T20:34:05.720Z,5.80
2018-09-15T20:36:39.436Z,5.23
2018-09-15T20:39:14.860Z,4.80
2018-09-15T20:41:48.456Z,3.90
2018-09-15T20:44:21.930Z,4.50
2018-09-15T20:46:55.545Z,4.97
2018-09-15T20:49:28.985Z,4.43
2018-09-15T20:52:02.609Z,3.87
2018-09-15T20:54:36.019Z,3.70
2018-09-15T20:57:10.002Z,4.33
2018-09-15T20:59:44.153Z,3.97
2018-09-15T21:02:17.768Z,3.53
2018-09-15T21:04:57.681Z,4.57
2018-09-15T21:07:37.633Z,3.93
2018-09-15T21:10:11.178Z,3.33
2018-09-15T21:12:44.772Z,3.80
2018-09-15T21:15:18.332Z,3.33
2018-09-15T21:17:52.059Z,3.60
2018-09-15T21:20:25.635Z,3.40
2018-09-15T21:22:59.244Z,4.03
2018-09-15T21:25:32.924Z,3.43
2018-09-15T21:28:06.421Z,3.10
2018-09-15T21:31:44.632Z,4.00
2018-09-15T21:34:18.319Z,3.40
2018-09-15T21:36:52.109Z,2.93
2018-09-15T21:39:32.155Z,3.33
2018-09-15T21:42:05.850Z,3.50
2018-09-15T21:44:39.323Z,3.13
2018-09-15T21:47:13.031Z,3.20
2018-09-15T21:49:46.763Z,3.30
2018-09-15T21:52:20.339Z,3.10
2018-09-15T21:54:54.090Z,3.00
2018-09-15T21:57:34.109Z,3.03
2018-09-15T22:00:09.363Z,3.30
2018-09-15T22:02:42.871Z,3.27
2018-09-15T22:05:16.257Z,3.40
2018-09-15T22:07:50.718Z,3.20
2018-09-15T22:10:24.339Z,3.50
2018-09-15T22:14:22.569Z,3.30
2018-09-15T22:16:56.046Z,3.53
2018-09-15T22:19:29.533Z,3.47
2018-09-15T22:22:09.416Z,3.17
2018-09-15T22:24:42.947Z,3.27
2018-09-15T22:27:16.571Z,3.30
2018-09-15T22:29:50.171Z,3.67
2018-09-15T22:32:23.709Z,3.10
2018-09-15T22:35:03.657Z,3.33
2018-09-15T22:37:43.463Z,3.50
2018-09-15T22:40:17.040Z,4.07
2018-09-15T22:42:50.563Z,3.20
2018-09-15T22:45:28.280Z,3.77
2018-09-15T22:48:08.105Z,3.23
2018-09-15T22:50:43.760Z,3.30
2018-09-15T22:53:24.128Z,2.93
2018-09-15T22:55:57.602Z,3.60
2018-09-15T22:58:31.119Z,3.47
2018-09-15T23:01:09.877Z,3.80
2018-09-15T23:03:43.433Z,3.47
2018-09-15T23:06:17.996Z,4.67
2018-09-15T23:08:51.508Z,4.37
2018-09-15T23:11:25.043Z,4.33
2018-09-15T23:13:58.538Z,4.17
2018-09-15T23:16:38.503Z,4.27
2018-09-15T23:19:12.285Z,3.90
2018-09-15T23:21:46.693Z,3.90
2018-09-15T23:24:20.325Z,4.50
2018-09-15T23:26:53.849Z,4.20
2018-09-15T23:29:33.809Z,4.23
2018-09-15T23:32:07.468Z,3.97
2018-09-15T23:34:41.125Z,3.67
2018-09-15T23:37:14.524Z,4.27
2018-09-15T23:39:48.937Z,4.10
2018-09-15T23:42:22.738Z,3.43
2018-09-15T23:44:56.249Z,3.40
2018-09-15T23:47:29.867Z,3.53
2018-09-15T23:50:03.550Z,3.93
2018-09-15T23:52:37.031Z,3.40
2018-09-15T23:55:17.070Z,3.70
2018-09-15T23:57:50.655Z,3.90
